Latest Weather Observations for Mackay Airport

IDQ60801

Issued at 8:02 am EST Friday 24 March 2017 (issued every 30 minutes, with the page automatically refreshed every 10 minutes)

About weather observations | Map of weather stations | Latest weather observations for QLD | Other Formats
Station Details ID: 033045 Name: MACKAY AERO Lat: -21.17 Lon: 149.18 Height: 4.7 m
Data from the previous 72 hours. | See also: Recent months at Mackay Airport
Date/Time
EST
Temp
°C
App
Temp
°C
Dew
Point
°C
Rel
Hum
%
Delta-T
°C
Wind Press
QNH
hPa
Press
MSL
hPa
Rain since
9am
mm
Dir  Spd
km/h
Gust
km/h
Spd
kts
Gust
kts
24/08:00am 23.4 28.0 23.1 98 0.2 NW 4 0 2 0 1012.4 1012.4 -
24/07:50am 23.3 26.9 23.0 98 0.2 NE 9 17 5 9 1012.3 1012.3 129.6
24/07:30am 23.4 26.3 23.2 99 0.1 SSW 13 17 7 9 1011.7 1011.7 129.2
24/07:25am 23.4 26.3 23.2 99 0.1 SSW 13 20 7 11 1011.6 1011.6 129.2
24/07:00am 23.7 26.7 23.4 98 0.2 SSW 13 19 7 10 1011.4 1011.4 128.8
24/06:56am 23.8 27.3 23.5 98 0.2 SSW 11 17 6 9 1011.4 1011.4 128.8
24/06:45am 24.0 28.0 23.7 98 0.2 S 9 13 5 7 1011.4 1011.4 128.6
24/06:39am 24.0 27.2 23.7 98 0.2 SSE 13 22 7 12 1011.4 1011.4 128.4
24/06:30am 24.1 26.2 23.8 98 0.2 S 19 26 10 14 1011.1 1011.1 127.6
24/06:00am 23.9 26.7 23.7 99 0.1 S 15 19 8 10 1011.0 1011.0 127.6
24/05:50am 23.9 26.3 23.6 98 0.2 S 17 22 9 12 1010.9 1010.9 127.6
24/05:30am 24.0 26.4 23.7 98 0.2 SSE 17 20 9 11 1010.5 1010.5 127.6
24/05:04am 24.1 26.6 23.8 98 0.2 S 17 24 9 13 1010.0 1010.0 127.6
24/05:00am 24.2 26.8 23.9 98 0.2 S 17 24 9 13 1010.0 1010.0 127.6
24/04:52am 24.0 26.9 23.8 99 0.1 S 15 20 8 11 1009.8 1009.8 127.6
24/04:30am 23.9 27.9 23.7 99 0.1 SSW 9 13 5 7 1009.7 1009.7 127.6
24/04:00am 24.1 27.7 23.8 98 0.2 S 11 13 6 7 1009.7 1009.7 127.6
24/03:30am 24.0 27.3 23.8 99 0.1 SSE 13 17 7 9 1009.9 1009.9 127.6
24/03:00am 23.6 27.9 23.6 100 0.0 SW 7 9 4 5 1009.8 1009.8 127.6
24/02:30am 23.7 28.0 23.7 100 0.0 WSW 7 9 4 5 1009.9 1009.9 127.4
24/02:18am 23.8 27.7 23.6 99 0.1 SSW 9 13 5 7 1010.2 1010.2 127.4
24/02:15am 23.8 27.3 23.6 99 0.1 SSW 11 15 6 8 1010.3 1010.3 127.4
24/02:00am 23.8 26.6 23.6 99 0.1 S 15 19 8 10 1010.4 1010.4 127.4
24/01:54am 23.8 27.3 23.6 99 0.1 SSW 11 15 6 8 1010.6 1010.6 126.0
24/01:31am 23.8 27.3 23.6 99 0.1 SW 11 17 6 9 1010.7 1010.7 125.6
24/01:30am 23.8 27.3 23.6 99 0.1 SW 11 17 6 9 1010.7 1010.7 125.6
24/01:00am 23.8 27.4 23.8 100 0.0 SW 11 13 6 7 1011.0 1011.0 125.6
24/12:30am 24.0 28.1 24.0 100 0.0 SW 9 13 5 7 1011.2 1011.2 125.6
24/12:00am 23.8 27.7 23.6 99 0.1 WSW 9 11 5 6 1011.8 1011.8 125.6
 
Date/Time
EST
Temp
°C
App
Temp
°C
Dew
Point
°C
Rel
Hum
%
Delta-T
°C
Wind Press
QNH
hPa
Press
MSL
hPa
Rain since
9am
mm
Dir  Spd
km/h
Gust
km/h
Spd
kts
Gust
kts
23/11:30pm 23.8 27.8 23.8 100 0.0 SSW 9 13 5 7 1012.1 1012.1 125.6
23/11:00pm 24.0 27.8 24.0 100 0.0 SW 11 15 6 8 1012.5 1012.5 125.6
23/10:38pm 24.1 27.5 24.1 100 0.0 SSW 13 17 7 9 1012.7 1012.7 125.6
23/10:30pm 24.1 27.2 24.1 100 0.0 SSW 15 19 8 10 1012.8 1012.8 125.6
23/10:17pm 24.2 26.6 24.2 100 0.0 S 19 24 10 13 1013.0 1013.0 125.4
23/10:00pm 24.3 27.5 24.3 100 0.0 SSE 15 20 8 11 1013.3 1013.3 125.0
23/09:45pm 24.2 28.1 24.2 100 0.0 SSW 11 13 6 7 1013.1 1013.1 123.6
23/09:30pm 24.2 28.8 24.2 100 0.0 SSW 7 9 4 5 1013.2 1013.2 121.4
23/09:04pm 24.1 27.4 23.9 99 0.1 SE 13 15 7 8 1013.0 1013.0 120.2
23/09:00pm 24.1 27.0 23.9 99 0.1 ESE 15 26 8 14 1012.9 1012.9 120.0
23/08:30pm 24.6 26.3 24.6 100 0.0 E 24 39 13 21 1012.8 1012.8 113.0
23/08:26pm 24.4 25.2 24.4 100 0.0 E 28 39 15 21 1012.7 1012.7 109.8
23/08:18pm 24.7 27.4 24.7 100 0.0 SSE 19 32 10 17 1012.6 1012.6 102.8
23/08:00pm 24.4 28.0 24.4 100 0.0 SW 13 17 7 9 1011.6 1011.6 102.0
23/07:37pm 24.5 28.6 24.5 100 0.0 WSW 11 17 6 9 1011.2 1011.2 102.0
23/07:30pm 24.5 28.2 24.5 100 0.0 WSW 13 19 7 10 1011.3 1011.3 101.8
23/07:05pm 24.4 28.0 24.4 100 0.0 W 13 15 7 8 1011.5 1011.5 100.4
23/07:00pm 24.4 28.0 24.4 100 0.0 W 13 15 7 8 1011.6 1011.6 100.0
23/06:30pm 24.5 29.3 24.5 100 0.0 WSW 7 9 4 5 1011.3 1011.3 99.0
23/06:00pm 24.6 30.7 24.4 99 0.1 CALM 0 0 0 0 1010.8 1010.8 97.2
23/05:30pm 24.6 28.2 24.4 99 0.1 N 13 20 7 11 1010.7 1010.7 91.6
23/05:17pm 24.7 27.0 24.5 99 0.1 N 20 24 11 13 1010.4 1010.4 87.6
23/05:07pm 24.9 27.4 24.7 99 0.1 N 20 26 11 14 1010.2 1010.2 85.6
23/05:00pm 25.2 28.8 25.0 99 0.1 NNW 15 22 8 12 1010.3 1010.3 80.4
23/04:30pm 25.9 32.2 25.4 97 0.3 SSW 2 9 1 5 1009.8 1009.8 61.0
23/04:25pm 25.9 32.2 25.4 97 0.3 SW 2 6 1 3 1009.8 1009.8 60.2
23/04:00pm 25.8 31.3 25.3 97 0.3 SW 6 7 3 4 1009.6 1009.6 60.0
23/03:30pm 25.6 31.2 24.9 96 0.5 SSW 4 6 2 3 1009.9 1009.9 60.0
23/03:00pm 25.5 31.6 24.5 94 0.7 CALM 0 0 0 0 1009.9 1009.9 60.0
23/02:30pm 25.3 30.9 24.3 94 0.7 NE 2 6 1 3 1010.0 1010.0 60.0
23/02:02pm 25.3 30.9 24.8 97 0.3 ENE 4 9 2 5 1010.0 1010.0 60.0
23/02:00pm 25.3 31.3 24.8 97 0.3 ENE 2 7 1 4 1010.0 1010.0 60.0
23/01:30pm 25.2 31.3 25.0 99 0.1 ENE 2 7 1 4 1010.2 1010.2 59.2
23/01:14pm 25.0 29.7 25.0 100 0.0 ESE 9 11 5 6 1010.6 1010.6 58.2
23/01:00pm 24.8 29.8 24.8 100 0.0 S 7 11 4 6 1010.9 1010.9 57.8
23/12:58pm 24.7 29.6 24.7 100 0.0 SSW 7 11 4 6 1010.9 1010.9 57.8
23/12:30pm 24.3 29.0 24.3 100 0.0 SSW 7 11 4 6 1011.3 1011.3 56.0
23/12:00pm 24.1 27.2 24.1 100 0.0 SE 15 20 8 11 1011.9 1011.9 43.6
23/11:30am 24.1 27.2 24.1 100 0.0 SW 15 20 8 11 1011.8 1011.8 34.6
23/11:00am 24.3 27.3 24.0 98 0.2 WNW 15 20 8 11 1012.5 1012.5 16.6
23/10:30am 25.2 28.8 25.0 99 0.1 SSW 15 19 8 10 1012.2 1012.2 8.6
23/10:22am 25.4 29.1 25.1 98 0.2 SSW 15 20 8 11 1012.3 1012.3 3.4
23/10:19am 25.4 29.4 25.1 98 0.2 SSW 13 20 7 11 1012.3 1012.3 2.0
23/10:00am 25.3 29.3 25.1 99 0.1 SW 13 17 7 9 1012.1 1012.1 1.0
23/09:30am 24.9 28.7 24.7 99 0.1 SW 13 17 7 9 1012.2 1012.2 0.6
23/09:00am 24.8 28.9 24.6 99 0.1 WSW 11 15 6 8 1011.8 1011.8 35.6
23/08:30am 24.7 28.8 24.5 99 0.1 WNW 11 15 6 8 1011.6 1011.6 35.0
23/08:23am 24.7 29.1 24.5 99 0.1 WNW 9 13 5 7 1011.6 1011.6 34.8
23/08:00am 24.8 28.5 24.6 99 0.1 NW 13 20 7 11 1011.5 1011.5 34.0
23/07:59am 24.8 28.5 24.6 99 0.1 NW 13 20 7 11 1011.5 1011.5 33.8
23/07:30am 24.8 29.3 24.6 99 0.1 W 9 9 5 5 1010.8 1010.8 33.2
23/07:08am 24.6 29.0 24.4 99 0.1 NW 9 13 5 7 1010.7 1010.7 33.2
23/07:06am 24.6 28.7 24.6 100 0.0 NW 11 13 6 7 1010.8 1010.8 33.2
23/07:00am 24.8 28.7 24.8 100 0.0 WNW 13 17 7 9 1010.7 1010.7 33.0
23/06:30am 24.9 28.7 24.7 99 0.1 NNW 13 17 7 9 1010.7 1010.7 17.8
23/06:23am 25.0 29.6 24.7 98 0.2 NNW 9 13 5 7 1010.6 1010.6 11.2
23/06:17am 25.1 29.7 24.8 98 0.2 WNW 9 13 5 7 1010.6 1010.6 6.0
23/06:00am 25.2 29.5 24.9 98 0.2 WSW 11 13 6 7 1010.1 1010.1 4.8
23/05:30am 25.2 29.1 24.9 98 0.2 SW 13 17 7 9 1009.8 1009.8 4.8
23/05:00am 25.2 29.1 24.9 98 0.2 SW 13 19 7 10 1009.7 1009.7 4.8
23/04:30am 25.3 29.3 25.0 98 0.2 SW 13 15 7 8 1009.3 1009.3 4.8
23/04:00am 25.4 29.8 25.1 98 0.2 SW 11 15 6 8 1009.3 1009.3 4.8
23/03:30am 25.7 30.6 25.2 97 0.3 W 9 11 5 6 1009.2 1009.2 4.8
23/03:00am 26.1 31.5 25.4 96 0.5 NNE 7 13 4 7 1009.0 1009.0 4.8
23/02:48am 25.7 30.3 25.4 98 0.2 W 11 17 6 9 1009.0 1009.0 4.8
23/02:47am 25.7 30.7 25.4 98 0.2 WNW 9 17 5 9 1009.0 1009.0 4.8
23/02:30am 25.6 30.9 25.3 98 0.2 S 7 15 4 8 1009.1 1009.1 4.4
23/02:22am 25.6 30.9 25.3 98 0.2 SW 7 11 4 6 1009.3 1009.3 2.0
23/02:00am 25.6 30.2 25.3 98 0.2 SW 11 17 6 9 1009.2 1009.2 1.0
23/01:56am 25.6 30.2 25.3 98 0.2 SSW 11 17 6 9 1009.3 1009.3 1.0
23/01:30am 25.9 30.8 25.2 96 0.5 W 9 13 5 7 1009.6 1009.6 1.0
23/01:00am 26.1 31.3 25.1 94 0.7 NW 7 9 4 5 1009.9 1009.9 1.0
23/12:30am 27.0 32.3 25.8 93 0.8 ENE 9 13 5 7 1010.0 1010.0 1.0
23/12:00am 26.5 32.2 25.6 95 0.6 NE 6 9 3 5 1010.5 1010.5 1.0
 
Date/Time
EST
Temp
°C
App
Temp
°C
Dew
Point
°C
Rel
Hum
%
Delta-T
°C
Wind Press
QNH
hPa
Press
MSL
hPa
Rain since
9am
mm
Dir  Spd
km/h
Gust
km/h
Spd
kts
Gust
kts
22/11:30pm 26.1 32.8 25.4 96 0.5 CALM 0 2 0 1 1010.8 1010.8 1.0
22/11:00pm 26.2 31.1 25.3 95 0.6 WNW 9 11 5 6 1011.1 1011.1 1.0
22/10:30pm 27.0 33.0 26.0 94 0.7 NNE 6 7 3 4 1011.1 1011.1 1.0
22/10:19pm 26.9 32.8 25.9 94 0.7 NNE 6 9 3 5 1011.1 1011.1 0.8
22/10:00pm 26.7 29.9 24.4 87 1.6 NE 15 28 8 15 1011.1 1011.1 0.8
22/09:30pm 27.8 31.9 25.2 86 1.8 NE 13 17 7 9 1010.9 1010.9 0.0
22/09:00pm 27.7 32.0 25.5 88 1.5 NE 13 19 7 10 1010.7 1010.7 0.0
22/08:30pm 27.7 31.7 25.1 86 1.8 NE 13 19 7 10 1010.2 1010.2 0.0
22/08:00pm 27.7 31.2 24.9 85 2.0 NE 15 24 8 13 1009.7 1009.7 0.0
22/07:30pm 27.8 30.4 24.6 83 2.2 NE 19 24 10 13 1009.5 1009.5 0.0
22/07:20pm 27.9 30.8 25.1 85 2.0 NE 19 22 10 12 1009.4 1009.4 0.0
22/07:00pm 27.9 30.6 25.1 85 2.0 ENE 20 28 11 15 1009.3 1009.3 0.0
22/06:54pm 27.9 30.8 25.1 85 2.0 ENE 19 28 10 15 1009.2 1009.2 0.0
22/06:30pm 27.4 31.1 25.2 88 1.5 E 15 19 8 10 1008.8 1008.8 0.0
22/06:00pm 27.6 30.3 24.8 85 2.0 ENE 19 24 10 13 1008.7 1008.7 0.0
22/05:30pm 27.5 30.7 24.9 86 1.8 E 17 20 9 11 1008.7 1008.7 0.0
22/05:00pm 27.7 30.2 24.7 84 2.1 E 20 24 11 13 1008.3 1008.3 0.0
22/04:30pm 28.7 31.6 25.1 81 2.5 E 19 24 10 13 1008.3 1008.3 0.0
22/04:00pm 28.6 31.0 25.2 82 2.4 ESE 22 30 12 16 1008.2 1008.2 0.0
22/03:30pm 28.4 31.1 25.0 82 2.4 E 20 28 11 15 1008.3 1008.3 0.0
22/03:00pm 28.5 30.0 24.3 78 2.9 E 24 28 13 15 1008.1 1008.1 0.0
22/02:30pm 29.3 31.4 25.3 79 2.8 E 24 30 13 16 1008.1 1008.1 0.0
22/02:00pm 29.1 30.9 24.9 78 2.9 ESE 24 30 13 16 1008.4 1008.4 0.0
22/01:30pm 29.2 31.5 25.6 81 2.5 ESE 24 30 13 16 1008.6 1008.6 0.0
22/01:00pm 29.2 31.0 25.4 80 2.7 ESE 26 32 14 17 1009.1 1009.1 0.0
22/12:30pm 29.4 31.8 25.8 81 2.6 SE 24 30 13 16 1009.8 1009.8 0.0
22/12:00pm 29.1 30.8 25.3 80 2.7 ESE 26 32 14 17 1010.5 1010.5 0.0
22/11:30am 28.8 30.7 25.0 80 2.7 ESE 24 28 13 15 1010.8 1010.8 0.0
22/11:00am 28.7 30.9 25.5 83 2.3 ESE 24 28 13 15 1010.8 1010.8 0.0
22/10:30am 28.9 31.8 25.9 84 2.1 SE 22 26 12 14 1011.0 1011.0 0.0
22/10:00am 28.3 31.6 25.7 86 1.8 SE 19 24 10 13 1011.3 1011.3 0.0
22/09:49am 28.0 30.5 25.4 86 1.8 SE 22 26 12 14 1011.4 1011.4 0.0
22/09:30am 28.0 30.7 25.0 84 2.1 SE 20 26 11 14 1011.6 1011.6 0.0
22/09:09am 27.8 30.9 24.8 84 2.1 SE 17 20 9 11 1011.6 1011.6 0.0
22/09:00am 27.1 29.8 24.2 84 2.0 SE 17 20 9 11 1011.4 1011.4 26.6
22/08:30am 26.8 30.5 24.6 88 1.5 SSE 13 17 7 9 1011.1 1011.1 26.6
22/08:00am 25.6 29.3 24.6 94 0.7 S 13 17 7 9 1010.7 1010.7 26.4
22/07:30am 24.6 29.0 24.4 99 0.1 SSW 9 11 5 6 1010.5 1010.5 26.4
22/07:00am 23.9 28.0 23.9 100 0.0 WSW 9 11 5 6 1010.1 1010.1 26.4
22/06:30am 23.7 28.2 23.7 100 0.0 SSW 6 9 3 5 1010.0 1010.0 26.4
22/06:00am 23.8 27.4 23.8 100 0.0 SSW 11 13 6 7 1009.8 1009.8 26.4
22/05:30am 23.9 28.0 23.9 100 0.0 SSW 9 13 5 7 1009.8 1009.8 26.4
22/05:00am 24.1 28.6 23.9 99 0.1 SSW 7 7 4 4 1009.7 1009.7 26.4
22/04:30am 24.3 28.6 24.3 100 0.0 SSW 9 13 5 7 1009.3 1009.3 26.4
22/04:00am 24.3 28.9 24.1 99 0.1 WSW 7 9 4 5 1008.8 1008.8 26.4
22/03:30am 24.5 30.5 24.3 99 0.1 CALM 0 0 0 0 1009.1 1009.1 26.4
22/03:00am 24.6 29.5 24.4 99 0.1 WSW 6 6 3 3 1009.2 1009.2 26.4
22/02:30am 24.5 30.3 24.5 100 0.0 WSW 2 6 1 3 1009.2 1009.2 26.4
22/02:00am 24.4 28.8 24.4 100 0.0 WSW 9 9 5 5 1009.5 1009.5 26.4
22/01:35am 24.4 30.4 24.2 99 0.1 CALM 0 0 0 0 1009.9 1009.9 26.4
22/01:30am 24.4 30.5 24.4 100 0.0 CALM 0 0 0 0 1009.9 1009.9 26.4
22/01:00am 24.4 29.2 24.2 99 0.1 N 6 11 3 6 1010.1 1010.1 23.0
22/12:55am 24.3 29.8 24.1 99 0.1 NE 2 9 1 5 1010.0 1010.0 21.0
22/12:30am 24.4 27.8 24.1 98 0.2 SE 13 17 7 9 1010.4 1010.4 8.2
22/12:00am 24.7 28.4 24.5 99 0.1 SW 13 22 7 12 1010.6 1010.6 5.0
 
Date/Time
EST
Temp
°C
App
Temp
°C
Dew
Point
°C
Rel
Hum
%
Delta-T
°C
Wind Press
QNH
hPa
Press
MSL
hPa
Rain since
9am
mm
Dir  Spd
km/h
Gust
km/h
Spd
kts
Gust
kts
21/11:46pm 24.8 28.9 24.5 98 0.2 W 11 17 6 9 1010.6 1010.6 4.0
21/11:30pm 24.6 28.6 24.4 99 0.1 SW 11 11 6 6 1010.7 1010.7 3.6
21/11:00pm 24.7 28.7 24.4 98 0.2 SW 11 15 6 8 1010.6 1010.6 3.6
21/10:37pm 24.7 28.7 24.4 98 0.2 WSW 11 15 6 8 1010.9 1010.9 3.6
21/10:30pm 24.8 28.4 24.3 97 0.3 WSW 13 19 7 10 1010.9 1010.9 3.6
21/10:21pm 24.8 28.5 24.5 98 0.2 WSW 13 19 7 10 1011.0 1011.0 3.6
21/10:00pm 25.0 29.2 24.7 98 0.2 W 11 13 6 7 1010.8 1010.8 3.6
21/09:30pm 25.3 30.2 24.6 96 0.5 W 7 9 4 5 1010.8 1010.8 3.6
21/09:00pm 25.7 32.0 24.8 95 0.6 CALM 0 0 0 0 1010.8 1010.8 3.6
21/08:30pm 25.7 29.9 24.7 94 0.7 NW 11 13 6 7 1010.4 1010.4 3.6
21/08:00pm 26.3 29.2 24.5 90 1.2 NE 17 22 9 12 1010.3 1010.3 3.6
21/07:49pm 26.2 29.3 24.8 92 1.0 NE 17 24 9 13 1010.0 1010.0 3.6
21/07:30pm 26.0 30.8 25.1 95 0.6 N 9 15 5 8 1009.7 1009.7 3.6
21/07:15pm 26.0 31.3 25.3 96 0.5 NE 7 19 4 10 1009.8 1009.8 3.6
21/07:00pm 25.8 30.9 24.9 95 0.6 ENE 7 9 4 5 1009.7 1009.7 3.6
21/06:30pm 26.1 30.9 25.1 94 0.7 E 9 13 5 7 1009.3 1009.3 3.6
21/06:00pm 25.8 30.0 24.8 94 0.7 ENE 11 15 6 8 1009.5 1009.5 3.6
21/05:59pm 25.8 30.4 24.8 94 0.7 ENE 9 15 5 8 1009.5 1009.5 3.6
21/05:46pm 25.7 28.7 24.7 94 0.7 ENE 17 24 9 13 1009.3 1009.3 3.4
21/05:38pm 25.9 28.7 24.9 94 0.7 ENE 19 26 10 14 1009.3 1009.3 3.2
21/05:30pm 26.3 29.7 25.3 94 0.7 ENE 17 24 9 13 1009.3 1009.3 2.8
21/05:00pm 26.3 32.0 25.6 96 0.5 NE 6 19 3 10 1009.0 1009.0 2.8
21/04:59pm 26.2 32.2 25.5 96 0.5 NNE 4 19 2 10 1009.0 1009.0 2.8
21/04:50pm 25.7 31.5 24.5 93 0.8 N 2 6 1 3 1008.9 1008.9 2.8
21/04:32pm 25.7 30.2 23.9 90 1.2 NNW 7 9 4 5 1009.0 1009.0 1.6
21/04:30pm 25.8 30.2 23.8 89 1.4 NNW 7 11 4 6 1009.0 1009.0 0.8
21/04:00pm 25.9 28.5 23.9 89 1.4 NNE 17 20 9 11 1008.6 1008.6 0.8
21/03:30pm 27.1 32.2 24.7 87 1.7 SW 6 7 3 4 1008.6 1008.6 0.8
21/03:00pm 26.7 30.3 24.4 87 1.6 S 13 17 7 9 1008.5 1008.5 0.8
21/02:30pm 27.1 29.2 24.7 87 1.7 S 22 30 12 16 1008.6 1008.6 0.8
21/02:07pm 27.5 29.6 25.3 88 1.5 S 24 32 13 17 1008.6 1008.6 0.8
21/02:00pm 27.4 30.2 25.8 91 1.1 SSW 22 30 12 16 1008.7 1008.7 0.8
21/01:57pm 26.8 28.6 24.8 89 1.4 SSW 24 33 13 18 1008.7 1008.7 0.8
21/01:30pm 29.0 32.9 24.8 78 2.9 ESE 13 17 7 9 1009.0 1009.0 0.8
21/01:00pm 28.6 33.3 25.0 81 2.5 SSE 9 15 5 8 1009.5 1009.5 0.8
21/12:34pm 28.2 32.3 24.6 81 2.5 SSE 11 19 6 10 1010.0 1010.0 0.8
21/12:30pm 28.1 31.5 24.7 82 2.4 SSE 15 20 8 11 1010.0 1010.0 0.8
21/12:13pm 28.2 32.2 25.0 83 2.2 SE 13 20 7 11 1010.3 1010.3 0.8
21/12:00pm 28.7 32.6 24.9 80 2.7 ESE 13 19 7 10 1010.5 1010.5 0.8
21/11:30am 27.9 33.2 25.3 86 1.8 ESE 7 11 4 6 1011.1 1011.1 0.8
21/11:00am 27.4 32.5 26.2 93 0.9 ESE 11 17 6 9 1011.4 1011.4 0.8
21/10:52am 27.0 31.4 25.0 89 1.4 ESE 11 17 6 9 1011.3 1011.3 0.8
21/10:30am 26.1 29.8 25.1 94 0.7 ESE 15 17 8 9 1011.6 1011.6 0.8
21/10:20am 26.0 28.9 24.4 91 1.1 E 17 26 9 14 1011.8 1011.8 0.4
21/10:00am 27.8 31.5 24.6 83 2.2 SE 13 17 7 9 1011.9 1011.9 0.0
21/09:30am 27.6 30.1 23.8 80 2.6 SSE 17 20 9 11 1011.8 1011.8 0.0
21/09:00am 27.1 30.4 25.1 89 1.4 SSE 17 24 9 13 1011.8 1011.8 53.6
21/08:30am 25.9 28.6 24.1 90 1.2 SSE 17 24 9 13 1011.7 1011.7 53.6

Other Formats:

Comma delimited format used in spreadsheet applications
http://www.bom.gov.au/fwo/IDQ60801/IDQ60801.95367.axf

JavaScript Object Notation format (JSON) in row-major order
http://www.bom.gov.au/fwo/IDQ60801/IDQ60801.95367.json